Time;durP1;ratioP1;P1;durP2;ratioP2;P2;SDS_P1;SDS_P2;PMS_P1;PMS_P2;Temp;Humidity;BMP_temperature;BMP_pressure;BME280_temperature;BME280_humidity;BME280_pressure;Samples;Min_cycle;Max_cycle;Signal;HPM_P1;HPM_P2
2022/03/26 00:00:09;;;;;;;23.92;5.07;;;;;;;7.33;100.00;101931.41;4791449;29;20466;-78
2022/03/26 00:02:35;;;;;;;30.08;6.43;;;;;;;7.33;100.00;101938.63;4777903;29;20470;-78
2022/03/26 00:05:00;;;;;;;29.70;5.90;;;;;;;7.20;100.00;101917.56;4823175;29;20037;-78
2022/03/26 00:07:27;;;;;;;33.65;5.97;;;;;;;7.16;100.00;101908.97;4763495;30;20197;-78
2022/03/26 00:09:52;;;;;;;26.50;5.70;;;;;;;7.31;100.00;101946.78;4789858;29;20113;-78
2022/03/26 00:12:19;;;;;;;25.60;5.50;;;;;;;7.38;100.00;101955.06;4807375;29;20106;-78
2022/03/26 00:14:44;;;;;;;34.70;5.35;;;;;;;7.40;100.00;101967.31;4790644;29;20030;-78
2022/03/26 00:17:10;;;;;;;27.35;5.28;;;;;;;7.31;100.00;101944.09;4779026;29;20374;-78
2022/03/26 00:19:35;;;;;;;17.58;4.50;;;;;;;7.44;100.00;101957.13;4792941;29;20450;-78
2022/03/26 00:22:01;;;;;;;23.70;4.90;;;;;;;7.35;100.00;101953.53;4809052;29;20039;-78
2022/03/26 00:24:26;;;;;;;26.45;4.85;;;;;;;7.36;100.00;101949.88;4807847;29;20103;-78
2022/03/26 00:26:52;;;;;;;24.48;4.85;;;;;;;7.38;100.00;101953.22;4767905;29;20045;-78
2022/03/26 00:29:18;;;;;;;28.38;4.65;;;;;;;7.37;100.00;101964.94;4826393;29;20034;-78
2022/03/26 00:31:43;;;;;;;31.58;5.35;;;;;;;7.36;100.00;101971.28;4804431;29;20373;-78
2022/03/26 00:34:09;;;;;;;23.08;4.10;;;;;;;7.30;100.00;101958.50;4792751;29;20077;-78
2022/03/26 00:36:35;;;;;;;25.85;4.75;;;;;;;7.23;100.00;101944.03;4807416;29;20114;-78
2022/03/26 00:39:02;;;;;;;29.77;5.03;;;;;;;7.33;100.00;101955.50;4797035;29;20125;-78
2022/03/26 00:41:28;;;;;;;29.52;4.55;;;;;;;7.39;100.00;101970.16;4823447;29;20042;-78
2022/03/26 00:43:55;;;;;;;30.17;5.07;;;;;;;7.35;100.00;101968.75;4795466;29;20039;-77
2022/03/26 00:46:21;;;;;;;22.98;4.60;;;;;;;7.36;100.00;101960.56;4817130;29;20027;-78
2022/03/26 00:48:47;;;;;;;36.22;4.82;;;;;;;7.28;100.00;101949.75;4763457;30;20054;-78
2022/03/26 00:51:17;;;;;;;27.40;5.32;;;;;;;7.30;100.00;101951.28;4774417;29;20031;-77
2022/03/26 00:53:44;;;;;;;29.40;5.30;;;;;;;7.35;100.00;101974.97;4807646;29;20035;-78
2022/03/26 00:56:09;;;;;;;30.38;5.50;;;;;;;7.36;100.00;101954.38;4807752;29;20026;-78
2022/03/26 00:58:35;;;;;;;33.55;7.10;;;;;;;7.38;100.00;101968.44;4774480;30;20035;-78
2022/03/26 01:01:00;;;;;;;25.85;4.55;;;;;;;7.41;100.00;101974.34;4777176;29;20043;-78
2022/03/26 01:03:26;;;;;;;23.15;4.00;;;;;;;7.40;100.00;101972.66;4789939;30;20035;-78
2022/03/26 01:05:52;;;;;;;30.73;5.22;;;;;;;7.45;100.00;101972.19;4823012;29;20254;-78
2022/03/26 01:08:17;;;;;;;31.35;6.05;;;;;;;7.41;100.00;101978.84;4813444;29;20058;-78
2022/03/26 01:10:44;;;;;;;34.20;4.80;;;;;;;7.41;100.00;101979.69;4796376;29;20111;-78
2022/03/26 01:13:10;;;;;;;25.20;3.67;;;;;;;7.45;100.00;101981.09;4789723;30;20352;-79
2022/03/26 01:15:36;;;;;;;30.40;5.20;;;;;;;7.44;100.00;101979.41;4751111;30;20397;-78
2022/03/26 01:18:02;;;;;;;31.35;5.25;;;;;;;7.37;100.00;101989.03;4791496;29;20034;-78
2022/03/26 01:20:28;;;;;;;30.42;4.57;;;;;;;7.40;100.00;101993.25;4791226;29;20103;-78
2022/03/26 01:22:53;;;;;;;25.85;4.55;;;;;;;7.31;100.00;101978.91;4817894;29;20035;-78
2022/03/26 01:25:19;;;;;;;29.45;4.30;;;;;;;7.36;100.00;101992.72;4810151;29;20422;-78
2022/03/26 01:27:44;;;;;;;36.10;5.00;;;;;;;7.34;100.00;102001.88;4790982;29;20404;-78
2022/03/26 01:30:10;;;;;;;30.20;4.28;;;;;;;7.20;100.00;101989.81;4776678;29;20031;-78
2022/03/26 01:32:36;;;;;;;34.72;5.00;;;;;;;7.24;100.00;102012.63;4806156;29;20066;-77
2022/03/26 01:35:01;;;;;;;40.22;5.53;;;;;;;7.20;100.00;102008.56;4790340;29;20376;-78
2022/03/26 01:37:27;;;;;;;24.02;4.18;;;;;;;7.20;100.00;102020.09;4776687;29;20547;-78
2022/03/26 01:39:52;;;;;;;31.55;4.82;;;;;;;6.87;100.00;101962.63;4782491;29;20031;-78
2022/03/26 01:42:20;;;;;;;32.13;5.57;;;;;;;7.28;100.00;102032.75;4786684;29;20442;-78
2022/03/26 01:44:46;;;;;;;33.72;5.82;;;;;;;7.24;100.00;102044.75;4784308;29;20030;-77
2022/03/26 01:47:11;;;;;;;54.38;5.55;;;;;;;7.21;100.00;102045.88;4791497;29;20378;-77
2022/03/26 01:49:37;;;;;;;41.45;5.70;;;;;;;7.04;100.00;102036.78;4791544;29;20355;-78
2022/03/26 01:52:04;;;;;;;39.67;6.05;;;;;;;7.15;100.00;102053.66;4789935;29;20034;-78
2022/03/26 01:54:30;;;;;;;43.72;6.05;;;;;;;7.11;100.00;102045.06;4807794;29;20038;-78
2022/03/26 01:56:56;;;;;;;33.95;5.43;;;;;;;7.06;100.00;102042.00;4791150;29;20493;-78
2022/03/26 01:59:26;;;;;;;42.55;5.72;;;;;;;7.03;100.00;102039.63;4811514;29;20039;-78
2022/03/26 02:01:52;;;;;;;44.60;5.47;;;;;;;6.99;100.00;102044.41;4801283;29;20045;-78
2022/03/26 02:04:17;;;;;;;28.98;4.38;;;;;;;7.00;100.00;102050.63;4824304;29;20031;-78
2022/03/26 02:06:43;;;;;;;41.22;4.78;;;;;;;6.92;100.00;102056.69;4815907;29;20035;-78
2022/03/26 02:09:11;;;;;;;37.60;5.57;;;;;;;6.82;100.00;102037.13;4789926;29;20055;-78
2022/03/26 02:11:39;;;;;;;35.60;5.10;;;;;;;6.75;100.00;102019.97;4806971;29;20026;-77
2022/03/26 02:14:07;;;;;;;30.60;4.03;;;;;;;6.89;100.00;102050.75;4790621;29;20031;-77
2022/03/26 02:16:33;;;;;;;30.08;4.18;;;;;;;6.79;100.00;102035.59;4775114;29;20034;-78
2022/03/26 02:18:59;;;;;;;34.30;4.00;;;;;;;6.94;100.00;102056.53;4813763;29;20103;-78
2022/03/26 02:21:25;;;;;;;32.80;4.07;;;;;;;6.98;100.00;102060.59;4770828;29;20042;-78
2022/03/26 02:23:52;;;;;;;27.50;4.50;;;;;;;6.99;100.00;102049.78;4789489;29;20031;-78
2022/03/26 02:26:21;;;;;;;26.90;4.05;;;;;;;7.00;100.00;102051.44;4807027;29;20477;-78
2022/03/26 02:28:49;;;;;;;31.40;4.07;;;;;;;7.02;100.00;102065.53;4804600;29;20118;-78
2022/03/26 02:31:16;;;;;;;26.00;3.53;;;;;;;6.99;100.00;102051.63;4807181;29;20031;-78
2022/03/26 02:33:42;;;;;;;27.63;3.75;;;;;;;7.02;100.00;102049.50;4806041;29;20072;-77
2022/03/26 02:36:09;;;;;;;26.00;3.90;;;;;;;6.98;100.00;102048.06;4805257;29;20072;-77
2022/03/26 02:38:36;;;;;;;37.08;4.15;;;;;;;6.94;100.00;102052.03;4790472;29;20433;-78
2022/03/26 02:41:05;;;;;;;31.33;3.47;;;;;;;7.01;100.00;102061.16;4805882;29;20435;-78
2022/03/26 02:43:31;;;;;;;27.02;4.10;;;;;;;7.02;100.00;102070.91;4772643;30;20035;-78
2022/03/26 02:45:56;;;;;;;24.55;3.65;;;;;;;6.97;100.00;102065.13;4787864;30;20367;-78
2022/03/26 02:48:22;;;;;;;25.25;3.55;;;;;;;6.97;100.00;102061.59;4788258;30;20425;-78
2022/03/26 02:50:48;;;;;;;25.75;3.75;;;;;;;6.74;100.00;102020.97;4789150;29;20125;-78
2022/03/26 02:53:13;;;;;;;27.73;3.25;;;;;;;6.98;100.00;102066.78;4789488;29;20043;-78
2022/03/26 02:55:39;;;;;;;23.00;2.88;;;;;;;7.01;100.00;102074.53;4757105;30;20035;-77
2022/03/26 02:58:10;;;;;;;27.85;3.45;;;;;;;6.92;100.00;102059.38;4781400;29;20038;-78
2022/03/26 03:00:38;;;;;;;25.10;3.60;;;;;;;6.83;100.00;102044.19;4790248;29;20035;-77
2022/03/26 03:03:04;;;;;;;32.00;4.15;;;;;;;6.95;100.00;102072.44;4775024;29;20099;-78
2022/03/26 03:05:29;;;;;;;24.05;3.25;;;;;;;6.98;100.00;102064.13;4803415;29;20059;-78
2022/03/26 03:07:55;;;;;;;26.20;3.03;;;;;;;6.90;100.00;102057.81;4790140;29;20038;-78
2022/03/26 03:10:20;;;;;;;27.73;3.97;;;;;;;6.97;100.00;102072.31;4763381;29;20042;-78
2022/03/26 03:12:48;;;;;;;31.90;3.88;;;;;;;6.82;100.00;102047.81;4794894;29;20129;-78
2022/03/26 03:15:18;;;;;;;24.25;2.92;;;;;;;6.97;100.00;102078.50;4793772;29;20049;-78
2022/03/26 03:17:45;;;;;;;20.65;3.20;;;;;;;6.97;100.00;102078.50;4810966;29;20031;-78
2022/03/26 03:20:11;;;;;;;25.00;3.00;;;;;;;6.96;100.00;102076.81;4829505;29;20035;-78
2022/03/26 03:22:37;;;;;;;29.50;2.95;;;;;;;6.77;100.00;102042.06;4827417;29;20492;-77
2022/03/26 03:25:05;;;;;;;30.52;3.88;;;;;;;6.99;100.00;102081.88;4810596;29;20038;-77
2022/03/26 03:27:30;;;;;;;26.60;3.40;;;;;;;7.00;100.00;102083.56;4767327;30;20043;-77
2022/03/26 03:29:56;;;;;;;25.33;3.28;;;;;;;6.87;100.00;102063.47;4791381;30;20019;-78
2022/03/26 03:32:21;;;;;;;24.63;3.10;;;;;;;7.01;100.00;102085.25;4794620;29;20027;-77
2022/03/26 03:34:47;;;;;;;31.95;3.45;;;;;;;7.02;100.00;102086.97;4776287;30;20411;-78
2022/03/26 03:37:12;;;;;;;25.58;3.22;;;;;;;7.00;100.00;102088.91;4780445;29;20034;-78
2022/03/26 03:39:38;;;;;;;29.35;2.80;;;;;;;7.03;100.00;102096.66;4777849;29;20039;-78
2022/03/26 03:42:04;;;;;;;25.15;2.88;;;;;;;7.03;100.00;102101.19;4781790;30;20074;-78
2022/03/26 03:44:30;;;;;;;19.23;2.45;;;;;;;6.94;100.00;102089.50;4775210;30;20050;-78
2022/03/26 03:46:56;;;;;;;21.17;2.55;;;;;;;7.05;100.00;102108.06;4799876;29;20103;-77
2022/03/26 03:49:22;;;;;;;21.58;2.42;;;;;;;6.93;100.00;102082.47;4793858;29;20096;-77
2022/03/26 03:51:47;;;;;;;23.08;2.80;;;;;;;7.03;100.00;102103.84;4807081;29;20031;-78
2022/03/26 03:54:13;;;;;;;19.70;2.65;;;;;;;6.89;100.00;102069.50;4792577;29;20034;-77
2022/03/26 03:56:39;;;;;;;23.88;2.80;;;;;;;7.06;100.00;102107.09;4793200;29;20189;-77
2022/03/26 03:59:05;;;;;;;19.05;2.53;;;;;;;6.97;100.00;102110.63;4782997;29;20042;-77
2022/03/26 04:01:31;;;;;;;20.77;2.17;;;;;;;7.05;100.00;102116.09;4811462;29;20091;-77
2022/03/26 04:03:57;;;;;;;28.45;3.50;;;;;;;7.04;100.00;102113.56;4807633;29;20030;-78
2022/03/26 04:06:22;;;;;;;30.08;3.20;;;;;;;7.00;100.00;102120.19;4823065;29;20118;-78
2022/03/26 04:08:48;;;;;;;21.25;2.58;;;;;;;6.82;100.00;102095.97;4826489;29;20130;-76
2022/03/26 04:11:13;;;;;;;26.85;3.50;;;;;;;6.63;100.00;102075.47;4810803;29;20490;-78
2022/03/26 04:13:38;;;;;;;27.98;2.63;;;;;;;6.86;100.00;102126.00;4760590;30;20031;-77
2022/03/26 04:16:05;;;;;;;22.25;2.30;;;;;;;6.94;100.00;102143.00;4792342;29;20027;-77
2022/03/26 04:18:30;;;;;;;26.15;2.72;;;;;;;6.97;100.00;102142.72;4779495;29;20050;-77
2022/03/26 04:20:56;;;;;;;22.92;2.67;;;;;;;6.92;100.00;102134.28;4797289;29;20230;-77
2022/03/26 04:23:22;;;;;;;25.48;3.03;;;;;;;6.89;100.00;102145.28;4784144;29;20089;-78
2022/03/26 04:25:47;;;;;;;17.55;2.85;;;;;;;6.81;100.00;102129.06;4800349;29;20474;-78
2022/03/26 04:28:13;;;;;;;20.27;2.05;;;;;;;6.96;100.00;102156.25;4793811;29;20038;-78
2022/03/26 04:30:39;;;;;;;25.50;2.95;;;;;;;6.95;100.00;102166.09;4820947;29;20511;-78
2022/03/26 04:33:05;;;;;;;17.13;2.72;;;;;;;6.58;100.00;102105.28;4795959;29;20062;-77
2022/03/26 04:35:31;;;;;;;18.10;1.83;;;;;;;6.75;100.00;102135.81;4769713;29;20047;-77
2022/03/26 04:37:57;;;;;;;16.10;2.03;;;;;;;6.88;100.00;102173.00;4792675;29;20034;-77
2022/03/26 04:40:26;;;;;;;20.63;2.13;;;;;;;6.83;100.00;102159.22;4807821;29;20114;-77
2022/03/26 04:42:52;;;;;;;23.30;2.72;;;;;;;6.91;100.00;102179.91;4820773;29;20038;-76
2022/03/26 04:45:19;;;;;;;17.80;2.80;;;;;;;6.83;100.00;102169.94;4783892;29;20057;-77
2022/03/26 04:47:44;;;;;;;22.05;2.05;;;;;;;6.85;100.00;102175.13;4793534;29;20121;-77
2022/03/26 04:50:11;;;;;;;19.05;2.33;;;;;;;6.91;100.00;102191.47;4789985;30;20049;-77
2022/03/26 04:52:37;;;;;;;21.35;2.50;;;;;;;6.89;100.00;102204.16;4799707;29;20030;-77
2022/03/26 04:55:04;;;;;;;22.00;3.03;;;;;;;6.85;100.00;102205.38;4792174;29;20054;-78
2022/03/26 04:57:31;;;;;;;29.23;2.72;;;;;;;6.83;100.00;102220.75;4806495;29;20092;-77
2022/03/26 04:59:56;;;;;;;18.95;2.10;;;;;;;6.71;100.00;102209.31;4808392;29;20038;-77
2022/03/26 05:02:22;;;;;;;22.08;2.72;;;;;;;6.70;100.00;102220.19;4774743;29;20104;-77
2022/03/26 05:04:47;;;;;;;23.60;2.42;;;;;;;6.45;100.00;102179.59;4768556;30;20086;-77
2022/03/26 05:09:56;;;;;;;15.50;2.08;;;;;;;6.67;100.00;102236.50;4779673;29;20061;-77
2022/03/26 05:12:22;;;;;;;20.70;2.00;;;;;;;6.68;100.00;102240.88;4795043;29;20030;-77
2022/03/26 05:14:48;;;;;;;15.13;1.95;;;;;;;6.55;100.00;102225.91;4822473;29;20050;-78
2022/03/26 05:17:13;;;;;;;22.00;2.80;;;;;;;6.49;100.00;102225.63;4826525;29;20030;-77
2022/03/26 05:19:39;;;;;;;13.77;2.35;;;;;;;6.66;100.00;102248.19;4791702;29;20060;-77
2022/03/26 05:22:04;;;;;;;24.00;2.65;;;;;;;6.67;100.00;102255.22;4808691;29;20491;-77
2022/03/26 05:24:32;;;;;;;19.10;2.40;;;;;;;6.57;100.00;102237.31;4794234;29;20050;-77
2022/03/26 05:26:58;;;;;;;30.98;3.00;;;;;;;6.64;100.00;102263.53;4779205;29;20042;-78
2022/03/26 05:29:23;;;;;;;24.23;2.38;;;;;;;6.63;100.00;102268.03;4794561;29;20042;-78
2022/03/26 05:31:48;;;;;;;23.25;2.50;;;;;;;6.59;100.00;102262.13;4792093;29;20125;-77
2022/03/26 05:34:15;;;;;;;18.73;2.05;;;;;;;6.43;100.00;102248.41;4817030;29;20107;-77
2022/03/26 05:36:41;;;;;;;16.88;1.98;;;;;;;6.35;100.00;102248.25;4809714;29;20030;-78
2022/03/26 05:39:08;;;;;;;21.33;2.63;;;;;;;6.50;100.00;102273.63;4806615;29;20137;-78
2022/03/26 05:41:33;;;;;;;22.20;2.88;;;;;;;6.46;100.00;102272.22;4775573;29;20050;-78
2022/03/26 05:44:00;;;;;;;24.45;2.40;;;;;;;6.40;100.00;102262.06;4773442;30;20035;-78
2022/03/26 05:46:25;;;;;;;17.33;2.25;;;;;;;6.51;100.00;102287.84;4763366;29;20035;-77
2022/03/26 05:48:51;;;;;;;27.80;2.53;;;;;;;6.50;100.00;102295.03;4807287;29;20073;-77
2022/03/26 05:51:16;;;;;;;18.58;2.00;;;;;;;6.54;100.00;102306.28;4775649;29;20041;-77
2022/03/26 05:53:42;;;;;;;17.55;2.33;;;;;;;6.51;100.00;102303.88;4806065;29;20061;-78
2022/03/26 05:56:07;;;;;;;15.35;2.72;;;;;;;6.54;100.00;102312.47;4761515;29;20527;-78
2022/03/26 05:58:34;;;;;;;20.30;2.50;;;;;;;6.55;100.00;102307.97;4758657;30;20154;-78
2022/03/26 06:01:00;;;;;;;25.20;2.60;;;;;;;6.51;100.00;102299.38;4760354;30;20058;-77
2022/03/26 06:03:25;;;;;;;16.88;2.42;;;;;;;6.57;100.00;102322.91;4758490;30;20498;-78
2022/03/26 06:05:50;;;;;;;19.70;3.00;;;;;;;6.44;100.00;102300.91;4773333;29;20039;-78
2022/03/26 06:08:16;;;;;;;17.15;2.58;;;;;;;6.68;100.00;102338.00;4807293;29;20055;-78
2022/03/26 06:10:41;;;;;;;16.80;2.58;;;;;;;6.28;100.00;102284.53;4791148;29;20495;-78
2022/03/26 06:13:07;;;;;;;22.17;2.95;;;;;;;6.63;100.00;102340.25;4776569;29;20331;-78
2022/03/26 06:15:34;;;;;;;17.52;2.47;;;;;;;6.71;100.00;102344.91;4785541;29;20441;-78
2022/03/26 06:18:03;;;;;;;25.70;2.33;;;;;;;6.70;100.00;102361.97;4772248;30;20113;-77
2022/03/26 06:20:29;;;;;;;15.70;1.75;;;;;;;6.72;100.00;102363.53;4789567;29;20036;-78
2022/03/26 06:22:56;;;;;;;18.83;2.20;;;;;;;6.79;100.00;102366.50;4782166;29;20030;-77
2022/03/26 06:25:21;;;;;;;17.08;1.90;;;;;;;6.87;100.00;102372.00;4808972;29;20125;-78
2022/03/26 06:27:47;;;;;;;20.52;2.42;;;;;;;6.90;100.00;102365.53;4791604;29;20034;-78
2022/03/26 06:30:13;;;;;;;21.83;2.65;;;;;;;6.95;100.00;102382.84;4782631;30;20115;-82
2022/03/26 06:32:40;;;;;;;21.73;2.42;;;;;;;6.95;100.00;102368.63;4782225;29;20356;-81
2022/03/26 06:35:06;;;;;;;15.43;2.30;;;;;;;6.94;100.00;102386.53;4787931;29;20008;-80
2022/03/26 06:37:31;;;;;;;15.05;2.00;;;;;;;7.04;100.00;102392.75;4821011;29;20019;-80
2022/03/26 06:39:58;;;;;;;17.73;2.28;;;;;;;7.10;100.00;102407.41;4798694;29;20415;-78
2022/03/26 06:42:24;;;;;;;14.48;2.30;;;;;;;7.12;100.00;102420.66;4782765;30;20055;-80
2022/03/26 06:44:49;;;;;;;15.40;2.17;;;;;;;6.92;100.00;102388.50;4796140;30;20092;-78
2022/03/26 06:47:15;;;;;;;13.77;1.95;;;;;;;7.06;100.00;102409.53;4797404;29;20031;-79
2022/03/26 06:49:41;;;;;;;12.02;2.10;;;;;;;7.02;100.00;102413.47;4817652;29;20031;-80
2022/03/26 06:52:07;;;;;;;9.93;1.67;;;;;;;7.16;100.00;102438.16;4760586;30;20096;-79
2022/03/26 06:54:33;;;;;;;12.18;1.90;;;;;;;6.80;100.00;102377.06;4795297;29;20031;-80
2022/03/26 06:56:58;;;;;;;10.55;1.73;;;;;;;7.17;100.00;102410.41;4769692;30;20082;-79
2022/03/26 06:59:23;;;;;;;8.77;1.70;;;;;;;7.32;100.00;102418.88;4764081;30;20032;-82
2022/03/26 07:01:49;;;;;;;7.88;1.77;;;;;;;7.68;100.00;102461.09;4799975;29;20045;-80
2022/03/26 07:04:15;;;;;;;9.02;1.58;;;;;;;7.75;100.00;102451.50;4845907;29;20018;-82
2022/03/26 07:06:40;;;;;;;9.32;1.60;;;;;;;6.82;100.00;102273.44;4941396;24;20059;-84
2022/03/26 07:09:05;;;;;;;7.47;1.63;;;;;;;7.92;100.00;102460.69;4803137;29;20035;-83
2022/03/26 07:11:31;;;;;;;8.07;2.05;;;;;;;7.94;100.00;102460.53;4774704;29;20439;-83
2022/03/26 07:13:56;;;;;;;8.85;1.40;;;;;;;7.90;100.00;102461.81;4808881;29;20040;-82
2022/03/26 07:16:22;;;;;;;7.43;1.25;;;;;;;7.97;100.00;102473.66;4819655;29;20048;-81
2022/03/26 07:18:47;;;;;;;3.50;0.77;;;;;;;7.82;100.00;102480.44;4830922;29;20123;-82
2022/03/26 07:21:12;;;;;;;3.95;1.05;;;;;;;7.93;100.00;102483.81;4799083;29;20458;-80
2022/03/26 07:23:38;;;;;;;5.45;1.20;;;;;;;7.86;100.00;102488.03;4805719;29;20042;-83
2022/03/26 07:26:03;;;;;;;6.00;0.80;;;;;;;7.88;100.00;102479.84;4821342;29;20046;-82
2022/03/26 07:28:29;;;;;;;3.05;0.80;;;;;;;7.93;100.00;102494.53;4788608;29;20091;-80
2022/03/26 07:30:54;;;;;;;3.20;1.00;;;;;;;7.90;100.00;102492.13;4783889;29;20445;-82
2022/03/26 07:33:20;;;;;;;3.45;0.85;;;;;;;8.09;100.00;102503.84;4814829;29;20038;-79
2022/03/26 07:35:45;;;;;;;1.67;0.57;;;;;;;8.16;100.00;102519.22;4804030;29;20042;-81
2022/03/26 07:38:12;;;;;;;4.95;0.70;;;;;;;8.12;93.34;102511.63;4813116;29;20027;-79
2022/03/26 07:40:37;;;;;;;2.33;0.80;;;;;;;8.12;64.90;102512.47;4770100;30;20130;-82
2022/03/26 07:43:03;;;;;;;1.73;0.68;;;;;;;8.25;62.58;102514.88;4768732;30;20071;-81
2022/03/26 07:45:28;;;;;;;4.15;0.85;;;;;;;8.41;63.84;102504.44;4795635;30;20046;-81
2022/03/26 07:47:54;;;;;;;2.83;0.90;;;;;;;8.49;59.93;102501.03;4837475;29;20090;-80
2022/03/26 07:50:19;;;;;;;2.90;0.60;;;;;;;8.52;56.52;102506.13;4800080;29;20034;-83
2022/03/26 07:52:45;;;;;;;3.78;0.75;;;;;;;8.78;56.27;102527.81;4812922;29;20114;-81
2022/03/26 07:55:10;;;;;;;4.22;1.17;;;;;;;8.96;56.42;102513.63;4814059;29;20038;-82
2022/03/26 07:57:36;;;;;;;6.00;1.23;;;;;;;8.85;53.50;102528.91;4797692;29;20736;-80
2022/03/26 08:00:03;;;;;;;2.90;0.63;;;;;;;9.02;52.54;102530.00;4793714;29;20181;-78
2022/03/26 08:02:29;;;;;;;3.17;0.70;;;;;;;8.98;51.06;102541.19;4804477;29;20045;-80
2022/03/26 08:04:54;;;;;;;2.58;0.65;;;;;;;9.17;51.28;102543.78;4792504;29;20035;-81
2022/03/26 08:07:21;;;;;;;4.38;0.63;;;;;;;9.00;47.82;102548.06;4804406;29;20081;-81
2022/03/26 08:09:47;;;;;;;4.38;0.98;;;;;;;9.10;49.12;102527.41;4806071;29;20027;-80
2022/03/26 08:12:12;;;;;;;4.43;0.77;;;;;;;9.25;48.34;102549.28;4795828;29;20097;-79
2022/03/26 08:14:37;;;;;;;1.70;0.65;;;;;;;9.26;48.25;102559.03;4770887;29;20067;-81
2022/03/26 08:17:03;;;;;;;3.40;0.60;;;;;;;9.19;46.62;102557.91;4812604;29;20517;-81
2022/03/26 08:19:29;;;;;;;2.13;0.60;;;;;;;9.17;46.17;102559.91;4800584;29;20039;-79
2022/03/26 08:21:54;;;;;;;2.22;0.50;;;;;;;9.17;46.12;102565.25;4818234;29;20538;-80
2022/03/26 08:24:20;;;;;;;3.42;0.70;;;;;;;8.71;43.85;102515.97;4789112;29;20031;-80
2022/03/26 08:26:45;;;;;;;2.38;0.70;;;;;;;9.03;44.66;102576.47;4796979;29;20038;-80
2022/03/26 08:29:11;;;;;;;2.15;0.50;;;;;;;9.38;46.73;102575.81;4810755;29;20026;-80
2022/03/26 08:31:37;;;;;;;2.28;0.52;;;;;;;9.37;46.45;102556.16;4801614;29;20046;-80
2022/03/26 08:34:02;;;;;;;4.88;1.02;;;;;;;9.33;46.17;102561.97;4808347;29;20030;-80
2022/03/26 08:36:28;;;;;;;3.30;0.77;;;;;;;9.43;44.82;102586.94;4796418;29;20427;-80
2022/03/26 08:38:54;;;;;;;2.30;0.63;;;;;;;9.32;44.59;102589.81;4817649;29;20048;-79
2022/03/26 08:41:21;;;;;;;3.15;0.60;;;;;;;9.47;44.55;102582.13;4801325;29;20121;-79
2022/03/26 08:43:51;;;;;;;1.95;0.68;;;;;;;9.49;42.50;102590.88;4808833;29;20031;-79
2022/03/26 08:46:19;;;;;;;3.25;0.57;;;;;;;9.47;42.64;102609.84;4807647;29;20031;-79
2022/03/26 08:48:45;;;;;;;2.47;0.50;;;;;;;9.35;43.18;102603.81;4810005;29;20105;-79
2022/03/26 08:51:10;;;;;;;1.33;0.50;;;;;;;9.05;42.94;102571.81;4805538;29;20035;-78
2022/03/26 08:53:36;;;;;;;1.45;0.50;;;;;;;9.46;43.25;102597.41;4761764;29;20379;-79
2022/03/26 08:56:04;;;;;;;2.45;0.60;;;;;;;9.58;42.90;102616.88;4784806;29;20031;-79
2022/03/26 08:58:30;;;;;;;3.08;0.70;;;;;;;9.68;42.57;102622.22;4808484;29;20490;-79
2022/03/26 09:00:56;;;;;;;2.30;0.52;;;;;;;9.69;43.54;102614.00;4808296;29;20030;-79
2022/03/26 09:03:21;;;;;;;3.53;0.60;;;;;;;9.76;43.47;102604.31;4808669;29;20039;-79
2022/03/26 09:05:48;;;;;;;3.85;0.60;;;;;;;9.84;42.51;102612.50;4774964;30;20043;-78
2022/03/26 09:08:13;;;;;;;1.45;0.55;;;;;;;9.94;43.64;102595.47;4808142;29;20063;-79
2022/03/26 09:10:39;;;;;;;2.38;0.70;;;;;;;9.83;42.10;102610.81;4805164;29;20031;-78
2022/03/26 09:13:04;;;;;;;1.75;0.52;;;;;;;10.01;42.36;102616.22;4778565;29;20195;-79
2022/03/26 09:15:30;;;;;;;2.92;0.90;;;;;;;9.93;42.48;102618.81;4765233;29;20116;-78
2022/03/26 09:17:58;;;;;;;2.88;0.52;;;;;;;10.12;41.63;102616.00;4792465;29;20199;-78
2022/03/26 09:20:23;;;;;;;1.73;0.50;;;;;;;10.14;42.39;102612.34;4775938;29;20098;-78
2022/03/26 09:22:49;;;;;;;2.38;0.50;;;;;;;10.28;42.46;102620.75;4808824;29;20038;-78
2022/03/26 09:25:17;;;;;;;1.60;0.50;;;;;;;10.21;42.10;102602.66;4812045;29;20031;-78
2022/03/26 09:27:43;;;;;;;4.57;0.70;;;;;;;10.33;41.58;102631.03;4773361;29;20036;-78
2022/03/26 09:30:10;;;;;;;2.67;0.68;;;;;;;10.22;41.73;102617.78;4792202;29;20102;-78
2022/03/26 09:32:35;;;;;;;2.78;0.68;;;;;;;10.22;41.06;102625.84;4792073;29;20058;-78
2022/03/26 09:35:02;;;;;;;1.92;0.55;;;;;;;10.12;40.94;102610.63;4808385;29;20077;-78
2022/03/26 09:37:27;;;;;;;1.60;0.52;;;;;;;10.48;41.09;102620.59;4808879;29;20042;-78
2022/03/26 09:39:54;;;;;;;3.28;0.55;;;;;;;10.53;40.36;102602.16;4792079;29;20382;-78
2022/03/26 09:42:22;;;;;;;2.65;0.80;;;;;;;10.68;40.40;102608.66;4789979;29;20046;-78
2022/03/26 09:44:50;;;;;;;1.80;0.70;;;;;;;10.62;40.29;102606.59;4804282;29;20038;-78
2022/03/26 09:47:16;;;;;;;1.70;0.47;;;;;;;10.77;40.22;102626.59;4807876;29;20049;-79
2022/03/26 09:49:42;;;;;;;2.53;0.60;;;;;;;10.87;40.44;102631.88;4811718;29;20119;-79
2022/03/26 09:52:08;;;;;;;2.05;0.60;;;;;;;10.79;41.25;102604.88;4781349;29;20485;-78
2022/03/26 09:54:35;;;;;;;3.40;0.60;;;;;;;10.80;42.69;102630.81;4793453;29;20074;-79
2022/03/26 09:57:02;;;;;;;6.00;1.02;;;;;;;10.52;42.54;102606.66;4771542;29;20035;-78
2022/03/26 09:59:28;;;;;;;3.25;0.80;;;;;;;10.71;40.12;102607.50;4807515;29;20050;-78
2022/03/26 10:01:53;;;;;;;2.60;0.57;;;;;;;10.86;41.69;102634.72;4807367;29;20343;-78
2022/03/26 10:04:21;;;;;;;4.10;0.80;;;;;;;10.39;47.49;102622.34;4807565;29;20117;-81
2022/03/26 10:06:50;;;;;;;5.25;0.93;;;;;;;10.22;49.55;102634.75;4812516;29;20051;-78
2022/03/26 10:09:35;;;;;;;2.40;0.70;;;;;;;10.05;51.60;102636.44;4810689;29;20023;-78
2022/03/26 10:12:08;;;;;;;2.97;0.60;;;;;;;9.81;55.26;102631.63;4815357;29;20078;-78
2022/03/26 10:14:39;;;;;;;4.38;1.00;;;;;;;9.62;57.28;102637.09;4817446;29;20114;-78
2022/03/26 10:17:22;;;;;;;3.70;1.20;;;;;;;9.55;56.45;102638.66;4809865;29;20018;-78
2022/03/26 10:20:14;;;;;;;3.05;0.90;;;;;;;9.48;55.99;102637.56;4791048;29;20440;-78
2022/03/26 10:22:45;;;;;;;2.22;0.68;;;;;;;9.38;57.53;102616.09;4794878;29;20038;-79
2022/03/26 10:25:12;;;;;;;3.40;0.77;;;;;;;9.54;56.43;102637.84;4806166;29;20060;-79
2022/03/26 10:27:38;;;;;;;2.53;0.70;;;;;;;9.64;55.31;102638.63;4811005;29;20473;-78
2022/03/26 10:30:04;;;;;;;4.78;0.50;;;;;;;9.72;56.46;102647.78;4803875;29;20043;-78
2022/03/26 10:32:45;;;;;;;2.58;0.70;;;;;;;9.53;55.38;102608.41;4794428;29;20038;-77
2022/03/26 10:35:15;;;;;;;1.52;0.63;;;;;;;9.59;54.46;102616.72;4793586;29;20027;-77
2022/03/26 10:37:59;;;;;;;3.22;0.63;;;;;;;9.81;53.14;102638.84;4815022;29;20034;-77
2022/03/26 10:40:34;;;;;;;2.25;0.60;;;;;;;9.85;54.15;102645.59;4805555;29;20077;-78
2022/03/26 10:43:10;;;;;;;2.30;0.68;;;;;;;9.85;56.33;102651.00;4807633;29;20038;-78
2022/03/26 10:45:45;;;;;;;2.05;0.55;;;;;;;9.86;52.83;102645.44;4807497;29;20453;-78
2022/03/26 10:48:11;;;;;;;2.47;0.43;;;;;;;9.92;54.18;102632.41;4789283;29;20087;-78
2022/03/26 10:50:37;;;;;;;3.13;0.57;;;;;;;9.98;53.04;102648.78;4807689;29;20035;-78
2022/03/26 10:53:11;;;;;;;2.58;0.52;;;;;;;9.95;53.68;102640.19;4788946;29;20050;-78
2022/03/26 10:55:39;;;;;;;4.43;0.93;;;;;;;9.89;55.00;102628.19;4808569;29;20031;-78
2022/03/26 10:58:05;;;;;;;1.20;0.60;;;;;;;9.91;54.27;102650.41;4806404;29;20100;-79
2022/03/26 11:00:31;;;;;;;3.42;0.80;;;;;;;9.81;55.53;102634.31;4806450;29;20027;-78
2022/03/26 11:02:58;;;;;;;2.25;0.50;;;;;;;9.87;52.67;102644.47;4806917;29;20287;-78
2022/03/26 11:05:24;;;;;;;1.35;0.52;;;;;;;9.97;46.91;102640.91;4789071;29;20042;-78
2022/03/26 11:07:51;;;;;;;2.53;1.00;;;;;;;10.14;47.36;102648.16;4789589;29;20058;-79
2022/03/26 11:10:19;;;;;;;2.00;0.70;;;;;;;10.38;45.49;102644.88;4790294;29;20042;-79
2022/03/26 11:12:46;;;;;;;2.25;0.68;;;;;;;10.62;44.30;102646.97;4807005;29;20349;-80
2022/03/26 11:15:23;;;;;;;1.35;0.40;;;;;;;10.66;42.20;102634.91;4807247;29;20458;-79
2022/03/26 11:18:19;;;;;;;3.85;0.52;;;;;;;10.30;53.42;102653.75;4804803;29;20030;-79
2022/03/26 11:20:52;;;;;;;3.17;0.60;;;;;;;9.60;62.85;102674.88;4802367;29;20122;-80